RYR398 EPSC-EPKK
Flight info
| Callsign | RYR398 |
|---|---|
| Flight time | 0h 53m |
| Altitude | 30000 |
| Route | APNEZ1F APNEZ DCT DENKO L619 ADVAB L623 UWLER UWLER2G |
| Aircraft | B737/M-B737/7000 |
Departure
| Time | 2026-05-07 17:36 |
|---|---|
| Airport | Solidarity Szczecin–Goleniów Airport (EPSC) |
Arrival
| Time | 2026-05-07 18:29 |
|---|---|
| Airport | Kraków John Paul II International Airport (EPKK) |
| Time | Latitude | Longitude | Altitude | Speed | Heading |
|---|---|---|---|---|---|
| 2026-05-07 17:22 | 53.59242 | 14.89558 | 132 ft | 0 kts | 39° |
| 2026-05-07 17:29 | 53.59242 | 14.89557 | 132 ft | 0 kts | 39° |
| 2026-05-07 17:31 | 53.59243 | 14.89560 | 132 ft | 0 kts | 54° |
| 2026-05-07 17:31 | 53.59236 | 14.89567 | 132 ft | 3 kts | 153° |
| 2026-05-07 17:31 | 53.59175 | 14.89637 | 134 ft | 18 kts | 137° |
| 2026-05-07 17:32 | 53.59064 | 14.89844 | 136 ft | 26 kts | 131° |
| 2026-05-07 17:32 | 53.58949 | 14.90064 | 139 ft | 24 kts | 131° |
| 2026-05-07 17:32 | 53.58842 | 14.90271 | 142 ft | 23 kts | 130° |
| 2026-05-07 17:32 | 53.58739 | 14.90471 | 144 ft | 22 kts | 130° |
| 2026-05-07 17:33 | 53.58639 | 14.90666 | 146 ft | 22 kts | 131° |
| 2026-05-07 17:33 | 53.58542 | 14.90854 | 149 ft | 22 kts | 131° |
| 2026-05-07 17:33 | 53.58442 | 14.91049 | 151 ft | 22 kts | 131° |
| 2026-05-07 17:33 | 53.58343 | 14.91241 | 154 ft | 21 kts | 130° |
| 2026-05-07 17:34 | 53.58248 | 14.91428 | 156 ft | 21 kts | 130° |
| 2026-05-07 17:34 | 53.58155 | 14.91609 | 158 ft | 20 kts | 130° |
| 2026-05-07 17:34 | 53.58064 | 14.91614 | 159 ft | 14 kts | 220° |
| 2026-05-07 17:34 | 53.57991 | 14.91508 | 159 ft | 14 kts | 220° |
| 2026-05-07 17:35 | 53.57921 | 14.91406 | 161 ft | 13 kts | 229° |
| 2026-05-07 17:35 | 53.57932 | 14.91273 | 161 ft | 13 kts | 309° |
| 2026-05-07 17:35 | 53.58034 | 14.91077 | 158 ft | 53 kts | 311° |
| 2026-05-07 17:35 | 53.58462 | 14.90252 | 148 ft | 131 kts | 310° |
| 2026-05-07 17:36 | 53.59198 | 14.88834 | 304 ft | 180 kts | 314° |
| 2026-05-07 17:36 | 53.60078 | 14.87163 | 1115 ft | 198 kts | 314° |
| 2026-05-07 17:36 | 53.61010 | 14.85334 | 1975 ft | 214 kts | 314° |
| 2026-05-07 17:36 | 53.61994 | 14.83382 | 2898 ft | 223 kts | 314° |
| 2026-05-07 17:37 | 53.63003 | 14.81358 | 3869 ft | 228 kts | 310° |
| 2026-05-07 17:37 | 53.63666 | 14.78878 | 4737 ft | 242 kts | 281° |
| 2026-05-07 17:37 | 53.63416 | 14.76040 | 5562 ft | 253 kts | 244° |
| 2026-05-07 17:37 | 53.62251 | 14.73826 | 6460 ft | 255 kts | 215° |
| 2026-05-07 17:38 | 53.60792 | 14.72093 | 7299 ft | 258 kts | 216° |
| 2026-05-07 17:38 | 53.59316 | 14.70410 | 8061 ft | 257 kts | 205° |
| 2026-05-07 17:38 | 53.57579 | 14.69939 | 8675 ft | 254 kts | 172° |
| 2026-05-07 17:38 | 53.55929 | 14.70990 | 9111 ft | 258 kts | 141° |
| 2026-05-07 17:39 | 53.54629 | 14.73070 | 9629 ft | 261 kts | 131° |
| 2026-05-07 17:39 | 53.53401 | 14.75407 | 9944 ft | 273 kts | 130° |
| 2026-05-07 17:39 | 53.52155 | 14.77886 | 10340 ft | 281 kts | 129° |
| 2026-05-07 17:39 | 53.50878 | 14.80433 | 10724 ft | 290 kts | 129° |
| 2026-05-07 17:40 | 53.49561 | 14.83035 | 11147 ft | 300 kts | 130° |
| 2026-05-07 17:40 | 53.48186 | 14.85727 | 11916 ft | 299 kts | 130° |
| 2026-05-07 17:40 | 53.46937 | 14.88154 | 12516 ft | 304 kts | 130° |
| 2026-05-07 17:40 | 53.45547 | 14.90846 | 13228 ft | 305 kts | 130° |
| 2026-05-07 17:41 | 53.44146 | 14.93553 | 13878 ft | 310 kts | 130° |
| 2026-05-07 17:41 | 53.42726 | 14.96297 | 14471 ft | 313 kts | 130° |
| 2026-05-07 17:41 | 53.41293 | 14.99062 | 15103 ft | 315 kts | 131° |
| 2026-05-07 17:41 | 53.39853 | 15.01842 | 15718 ft | 317 kts | 131° |
| 2026-05-07 17:42 | 53.38394 | 15.04654 | 16236 ft | 324 kts | 131° |
| 2026-05-07 17:42 | 53.36889 | 15.07553 | 16651 ft | 333 kts | 132° |
| 2026-05-07 17:42 | 53.35356 | 15.10503 | 17199 ft | 338 kts | 132° |
| 2026-05-07 17:42 | 53.33807 | 15.13480 | 17841 ft | 340 kts | 132° |
| 2026-05-07 17:43 | 53.32249 | 15.16472 | 18467 ft | 342 kts | 133° |
| 2026-05-07 17:43 | 53.30677 | 15.19488 | 18995 ft | 345 kts | 132° |
| 2026-05-07 17:43 | 53.29089 | 15.22531 | 19522 ft | 348 kts | 132° |
| 2026-05-07 17:43 | 53.27493 | 15.25583 | 20065 ft | 351 kts | 132° |
| 2026-05-07 17:44 | 53.25857 | 15.28632 | 20604 ft | 353 kts | 137° |
| 2026-05-07 17:44 | 53.23977 | 15.31283 | 21127 ft | 355 kts | 144° |
| 2026-05-07 17:44 | 53.21979 | 15.33751 | 21670 ft | 357 kts | 145° |
| 2026-05-07 17:44 | 53.19953 | 15.36189 | 22192 ft | 361 kts | 145° |
| 2026-05-07 17:45 | 53.17908 | 15.38653 | 22727 ft | 363 kts | 144° |
| 2026-05-07 17:45 | 53.15867 | 15.41136 | 23317 ft | 363 kts | 144° |
| 2026-05-07 17:45 | 53.13834 | 15.43630 | 23869 ft | 364 kts | 144° |
| 2026-05-07 17:45 | 53.11785 | 15.46158 | 24246 ft | 369 kts | 144° |
| 2026-05-07 17:46 | 53.09741 | 15.48688 | 24634 ft | 372 kts | 144° |
| 2026-05-07 17:46 | 53.07662 | 15.51264 | 25120 ft | 372 kts | 144° |
| 2026-05-07 17:46 | 53.05583 | 15.53840 | 25618 ft | 373 kts | 144° |
| 2026-05-07 17:46 | 53.03497 | 15.56422 | 26072 ft | 375 kts | 144° |
| 2026-05-07 17:47 | 53.01399 | 15.59017 | 26508 ft | 376 kts | 144° |
| 2026-05-07 17:47 | 52.99308 | 15.61601 | 27050 ft | 374 kts | 144° |
| 2026-05-07 17:47 | 52.97220 | 15.64177 | 27667 ft | 371 kts | 144° |
| 2026-05-07 17:47 | 52.95158 | 15.66719 | 28221 ft | 369 kts | 144° |
| 2026-05-07 17:48 | 52.93099 | 15.69253 | 28701 ft | 369 kts | 144° |
| 2026-05-07 17:48 | 52.91035 | 15.71790 | 29099 ft | 371 kts | 144° |
| 2026-05-07 17:48 | 52.88955 | 15.74344 | 29453 ft | 373 kts | 145° |
| 2026-05-07 17:48 | 52.86867 | 15.76906 | 29790 ft | 375 kts | 145° |
| 2026-05-07 17:49 | 52.84765 | 15.79482 | 30082 ft | 377 kts | 145° |
| 2026-05-07 17:49 | 52.82627 | 15.82095 | 30048 ft | 386 kts | 145° |
| 2026-05-07 17:49 | 52.78315 | 15.87590 | 30075 ft | 401 kts | 143° |
| 2026-05-07 17:50 | 52.73910 | 15.93502 | 30079 ft | 414 kts | 143° |
| 2026-05-07 17:50 | 52.69360 | 15.99573 | 30074 ft | 427 kts | 143° |
| 2026-05-07 17:51 | 52.64674 | 16.05768 | 30068 ft | 437 kts | 144° |
| 2026-05-07 17:51 | 52.59893 | 16.12061 | 30060 ft | 446 kts | 144° |
| 2026-05-07 17:52 | 52.55025 | 16.18452 | 30034 ft | 447 kts | 144° |
| 2026-05-07 17:52 | 52.50180 | 16.24786 | 30041 ft | 444 kts | 145° |
| 2026-05-07 17:53 | 52.45349 | 16.31078 | 30042 ft | 441 kts | 145° |
| 2026-05-07 17:53 | 52.40552 | 16.37313 | 30044 ft | 439 kts | 146° |
| 2026-05-07 17:54 | 52.35784 | 16.43493 | 30048 ft | 436 kts | 146° |
| 2026-05-07 17:54 | 52.31039 | 16.49626 | 30051 ft | 434 kts | 146° |
| 2026-05-07 17:55 | 52.26310 | 16.55722 | 30044 ft | 431 kts | 146° |
| 2026-05-07 17:55 | 52.21607 | 16.61768 | 30047 ft | 429 kts | 147° |
| 2026-05-07 17:56 | 52.16957 | 16.67731 | 30043 ft | 427 kts | 147° |
| 2026-05-07 17:56 | 52.12317 | 16.73764 | 30036 ft | 428 kts | 143° |
| 2026-05-07 17:57 | 52.08782 | 16.79542 | 30038 ft | 431 kts | 139° |
| 2026-05-07 17:57 | 52.04032 | 16.87829 | 30040 ft | 431 kts | 139° |
| 2026-05-07 17:58 | 51.99901 | 16.94883 | 30039 ft | 431 kts | 140° |
| 2026-05-07 17:58 | 51.95736 | 17.01880 | 30042 ft | 432 kts | 140° |
| 2026-05-07 17:59 | 51.91549 | 17.08875 | 30038 ft | 433 kts | 140° |
| 2026-05-07 17:59 | 51.87345 | 17.15884 | 30035 ft | 434 kts | 140° |
| 2026-05-07 18:00 | 51.83126 | 17.22898 | 30033 ft | 435 kts | 140° |
| 2026-05-07 18:00 | 51.78918 | 17.29951 | 30034 ft | 436 kts | 140° |
| 2026-05-07 18:01 | 51.74723 | 17.37003 | 30029 ft | 436 kts | 140° |
| 2026-05-07 18:01 | 51.70509 | 17.44010 | 30021 ft | 435 kts | 140° |
| 2026-05-07 18:02 | 51.64154 | 17.54403 | 30024 ft | 433 kts | 141° |
| 2026-05-07 18:03 | 51.59929 | 17.61294 | 30024 ft | 431 kts | 141° |
| 2026-05-07 18:03 | 51.55743 | 17.68109 | 30019 ft | 430 kts | 141° |
| 2026-05-07 18:04 | 51.51542 | 17.74933 | 30012 ft | 429 kts | 141° |
| 2026-05-07 18:04 | 51.47350 | 17.81725 | 30016 ft | 427 kts | 141° |
| 2026-05-07 18:05 | 51.43169 | 17.88480 | 30018 ft | 426 kts | 141° |
| 2026-05-07 18:05 | 51.38990 | 17.95213 | 30020 ft | 425 kts | 141° |
| 2026-05-07 18:06 | 51.34814 | 18.01922 | 30021 ft | 424 kts | 141° |
| 2026-05-07 18:06 | 51.32768 | 18.05204 | 29919 ft | 419 kts | 141° |
| 2026-05-07 18:06 | 51.30725 | 18.08483 | 29346 ft | 415 kts | 141° |
| 2026-05-07 18:06 | 51.28691 | 18.11736 | 28579 ft | 414 kts | 141° |
| 2026-05-07 18:07 | 51.26651 | 18.14991 | 27795 ft | 414 kts | 141° |
| 2026-05-07 18:07 | 51.24615 | 18.18235 | 27108 ft | 413 kts | 141° |
| 2026-05-07 18:07 | 51.22590 | 18.21462 | 26489 ft | 410 kts | 141° |
| 2026-05-07 18:07 | 51.20579 | 18.24662 | 25904 ft | 407 kts | 141° |
| 2026-05-07 18:08 | 51.19226 | 18.26811 | 25496 ft | 405 kts | 141° |
| 2026-05-07 18:08 | 51.17232 | 18.29977 | 24895 ft | 403 kts | 141° |
| 2026-05-07 18:08 | 51.15248 | 18.33121 | 24301 ft | 402 kts | 141° |
| 2026-05-07 18:08 | 51.13294 | 18.36215 | 23742 ft | 400 kts | 141° |
| 2026-05-07 18:09 | 51.11321 | 18.39333 | 23101 ft | 398 kts | 141° |
| 2026-05-07 18:09 | 51.09363 | 18.42425 | 22489 ft | 396 kts | 140° |
| 2026-05-07 18:09 | 51.07413 | 18.45502 | 21910 ft | 393 kts | 140° |
| 2026-05-07 18:09 | 51.05512 | 18.48606 | 21325 ft | 392 kts | 137° |
| 2026-05-07 18:10 | 51.03737 | 18.51889 | 20749 ft | 391 kts | 134° |
| 2026-05-07 18:10 | 51.02022 | 18.55235 | 20197 ft | 389 kts | 133° |
| 2026-05-07 18:10 | 51.00328 | 18.58573 | 19657 ft | 386 kts | 133° |
| 2026-05-07 18:10 | 50.98642 | 18.61878 | 19120 ft | 384 kts | 133° |
| 2026-05-07 18:11 | 50.96951 | 18.65161 | 18595 ft | 382 kts | 133° |
| 2026-05-07 18:11 | 50.95270 | 18.68394 | 18059 ft | 380 kts | 133° |
| 2026-05-07 18:11 | 50.93583 | 18.71616 | 17457 ft | 378 kts | 133° |
| 2026-05-07 18:11 | 50.91907 | 18.74802 | 16896 ft | 375 kts | 134° |
| 2026-05-07 18:12 | 50.90239 | 18.77964 | 16349 ft | 373 kts | 134° |
| 2026-05-07 18:12 | 50.88573 | 18.81111 | 15813 ft | 371 kts | 133° |
| 2026-05-07 18:12 | 50.86921 | 18.84229 | 15289 ft | 369 kts | 133° |
| 2026-05-07 18:12 | 50.85269 | 18.87340 | 14772 ft | 367 kts | 133° |
| 2026-05-07 18:13 | 50.83648 | 18.90389 | 14279 ft | 365 kts | 133° |
| 2026-05-07 18:13 | 50.82014 | 18.93460 | 13781 ft | 364 kts | 133° |
| 2026-05-07 18:13 | 50.80388 | 18.96512 | 13225 ft | 362 kts | 133° |
| 2026-05-07 18:13 | 50.78770 | 18.99545 | 12706 ft | 360 kts | 133° |
| 2026-05-07 18:14 | 50.77162 | 19.02556 | 12188 ft | 358 kts | 133° |
| 2026-05-07 18:14 | 50.75562 | 19.05550 | 11679 ft | 356 kts | 133° |
| 2026-05-07 18:14 | 50.73968 | 19.08527 | 11178 ft | 354 kts | 133° |
| 2026-05-07 18:14 | 50.72376 | 19.11498 | 11033 ft | 357 kts | 133° |
| 2026-05-07 18:15 | 50.70770 | 19.14490 | 10994 ft | 358 kts | 133° |
| 2026-05-07 18:15 | 50.69169 | 19.17473 | 10965 ft | 354 kts | 133° |
| 2026-05-07 18:15 | 50.67579 | 19.20429 | 10964 ft | 353 kts | 133° |
| 2026-05-07 18:15 | 50.65987 | 19.23387 | 10968 ft | 354 kts | 133° |
| 2026-05-07 18:16 | 50.64392 | 19.26346 | 10962 ft | 354 kts | 133° |
| 2026-05-07 18:16 | 50.62806 | 19.29285 | 10860 ft | 350 kts | 133° |
| 2026-05-07 18:16 | 50.61236 | 19.32194 | 10517 ft | 347 kts | 133° |
| 2026-05-07 18:16 | 50.59671 | 19.35086 | 9944 ft | 348 kts | 133° |
| 2026-05-07 18:17 | 50.58099 | 19.37990 | 9348 ft | 349 kts | 133° |
| 2026-05-07 18:17 | 50.56529 | 19.40886 | 8880 ft | 346 kts | 133° |
| 2026-05-07 18:17 | 50.54976 | 19.43750 | 8399 ft | 343 kts | 133° |
| 2026-05-07 18:17 | 50.53430 | 19.46596 | 7914 ft | 342 kts | 133° |
| 2026-05-07 18:18 | 50.51893 | 19.49423 | 7449 ft | 339 kts | 132° |
| 2026-05-07 18:18 | 50.50400 | 19.52168 | 7306 ft | 327 kts | 133° |
| 2026-05-07 18:18 | 50.48951 | 19.54830 | 7173 ft | 315 kts | 133° |
| 2026-05-07 18:18 | 50.47513 | 19.57464 | 6530 ft | 321 kts | 132° |
| 2026-05-07 18:19 | 50.46049 | 19.60141 | 5986 ft | 324 kts | 132° |
| 2026-05-07 18:19 | 50.44584 | 19.62819 | 5579 ft | 322 kts | 132° |
| 2026-05-07 18:19 | 50.43127 | 19.65483 | 5153 ft | 320 kts | 132° |
| 2026-05-07 18:19 | 50.41681 | 19.68124 | 4722 ft | 318 kts | 132° |
| 2026-05-07 18:20 | 50.40243 | 19.70745 | 4278 ft | 317 kts | 131° |
| 2026-05-07 18:20 | 50.38812 | 19.73352 | 4014 ft | 314 kts | 131° |
| 2026-05-07 18:20 | 50.37378 | 19.75962 | 4001 ft | 317 kts | 131° |
| 2026-05-07 18:20 | 50.35944 | 19.78570 | 3988 ft | 315 kts | 131° |
| 2026-05-07 18:21 | 50.34517 | 19.81165 | 3977 ft | 314 kts | 131° |
| 2026-05-07 18:21 | 50.33086 | 19.83760 | 3989 ft | 315 kts | 132° |
| 2026-05-07 18:21 | 50.31649 | 19.86366 | 4002 ft | 317 kts | 131° |
| 2026-05-07 18:21 | 50.30224 | 19.88948 | 3997 ft | 318 kts | 131° |
| 2026-05-07 18:22 | 50.28757 | 19.91605 | 3993 ft | 319 kts | 131° |
| 2026-05-07 18:22 | 50.27800 | 19.93337 | 3983 ft | 315 kts | 132° |
| 2026-05-07 18:22 | 50.25961 | 19.96664 | 3970 ft | 295 kts | 132° |
| 2026-05-07 18:22 | 50.24653 | 19.99026 | 3973 ft | 279 kts | 132° |
| 2026-05-07 18:23 | 50.23414 | 20.01256 | 3971 ft | 264 kts | 132° |
| 2026-05-07 18:23 | 50.22239 | 20.03371 | 3996 ft | 252 kts | 133° |
| 2026-05-07 18:23 | 50.21074 | 20.05407 | 3998 ft | 251 kts | 139° |
| 2026-05-07 18:23 | 50.19563 | 20.06648 | 4010 ft | 245 kts | 169° |
| 2026-05-07 18:24 | 50.17912 | 20.07184 | 3979 ft | 238 kts | 171° |
| 2026-05-07 18:24 | 50.16321 | 20.07697 | 3976 ft | 228 kts | 171° |
| 2026-05-07 18:24 | 50.14781 | 20.08200 | 3987 ft | 224 kts | 171° |
| 2026-05-07 18:24 | 50.13257 | 20.08228 | 3979 ft | 218 kts | 202° |
| 2026-05-07 18:25 | 50.12144 | 20.06884 | 3971 ft | 196 kts | 244° |
| 2026-05-07 18:25 | 50.11708 | 20.04972 | 3968 ft | 187 kts | 253° |
| 2026-05-07 18:25 | 50.11297 | 20.03063 | 3772 ft | 184 kts | 254° |
| 2026-05-07 18:25 | 50.10965 | 20.01173 | 3513 ft | 182 kts | 258° |
| 2026-05-07 18:26 | 50.10683 | 19.99267 | 3285 ft | 181 kts | 259° |
| 2026-05-07 18:26 | 50.10413 | 19.97359 | 3051 ft | 181 kts | 259° |
| 2026-05-07 18:26 | 50.10143 | 19.95431 | 2802 ft | 182 kts | 259° |
| 2026-05-07 18:26 | 50.09881 | 19.93572 | 2557 ft | 169 kts | 259° |
| 2026-05-07 18:27 | 50.09643 | 19.91881 | 2340 ft | 153 kts | 259° |
| 2026-05-07 18:27 | 50.09423 | 19.90307 | 2141 ft | 145 kts | 260° |
| 2026-05-07 18:27 | 50.09207 | 19.88757 | 1958 ft | 150 kts | 259° |
| 2026-05-07 18:27 | 50.08980 | 19.87142 | 1749 ft | 155 kts | 257° |
| 2026-05-07 18:28 | 50.08749 | 19.85504 | 1524 ft | 155 kts | 256° |
| 2026-05-07 18:28 | 50.08519 | 19.83863 | 1327 ft | 156 kts | 256° |
| 2026-05-07 18:28 | 50.08292 | 19.82226 | 1121 ft | 154 kts | 256° |
| 2026-05-07 18:28 | 50.08069 | 19.80612 | 898 ft | 151 kts | 256° |
| 2026-05-07 18:29 | 50.07851 | 19.79069 | 792 ft | 137 kts | 258° |
| 2026-05-07 18:29 | 50.07689 | 19.77924 | 792 ft | 77 kts | 257° |
| 2026-05-07 18:29 | 50.07599 | 19.77257 | 798 ft | 57 kts | 258° |
| 2026-05-07 18:29 | 50.07517 | 19.76879 | 801 ft | 23 kts | 216° |
| 2026-05-07 18:30 | 50.07367 | 19.76890 | 798 ft | 21 kts | 163° |
| 2026-05-07 18:30 | 50.07316 | 19.77031 | 798 ft | 14 kts | 81° |
| 2026-05-07 18:30 | 50.07332 | 19.77151 | 798 ft | 9 kts | 78° |
| 2026-05-07 18:30 | 50.07342 | 19.77224 | 797 ft | 5 kts | 77° |
| 2026-05-07 18:31 | 50.07344 | 19.77238 | 797 ft | 2 kts | 77° |
| 2026-05-07 18:31 | 50.07368 | 19.77394 | 797 ft | 22 kts | 77° |
| 2026-05-07 18:31 | 50.07405 | 19.77646 | 796 ft | 24 kts | 77° |
| 2026-05-07 18:31 | 50.07441 | 19.77893 | 795 ft | 25 kts | 79° |
| 2026-05-07 18:32 | 50.07474 | 19.78175 | 794 ft | 26 kts | 78° |
| 2026-05-07 18:32 | 50.07511 | 19.78440 | 793 ft | 24 kts | 78° |
| 2026-05-07 18:32 | 50.07544 | 19.78689 | 792 ft | 23 kts | 78° |
| 2026-05-07 18:32 | 50.07575 | 19.78928 | 791 ft | 22 kts | 78° |
| 2026-05-07 18:33 | 50.07605 | 19.79160 | 790 ft | 22 kts | 78° |
| 2026-05-07 18:33 | 50.07643 | 19.79382 | 789 ft | 21 kts | 71° |